LRBS/BBU METAR and TAF weather

Enter ICAO airport designator
Station Type Date Time Source
LRBS METAR 2019/12/08 01:00 UTC NOAA

LRBS 080100Z VRB01KT 3000 BR NSC 01/00 Q1016 NOSIG


Station Type Date Time Source
LRBS Decoded METAR 2019/12/08 01:00 UTC NOAA

Bucuresti / Imh, Romania (LRBS) 44-30N 026-08E 91M
Dec 07, 2019 - 08:00 PM EST / 2019.12.08 0100 UTC
Wind: Variable at 1 MPH (1 KT):0
Visibility: 1 mile(s):0
Weather: mist
Temperature: 33 F (1 C)
Dew Point: 32 F (0 C)
Relative Humidity: 93%
Pressure (altimeter): 30.00 in. Hg (1016 hPa)
ob: LRBS 080100Z VRB01KT 3000 BR NSC 01/00 Q1016 NOSIG
cycle: 1

Station Type Date Time Source
LRBS TAF 2019/12/07 18:33 UTC NOAA

TAF TAF LRBS 071700Z 0718/0818 VRB04KT 5000 BR NSC
BECMG 0718/0720 1500 BR BKN005
BECMG 0721/0723 0600 FZFG OVC001
BECMG 0806/0808 3000 BR SCT010
BECMG 0808/0810 9999 NSW
BECMG 0816/0818 3000 BR

Example: see airport list